Time;durP1;ratioP1;P1;durP2;ratioP2;P2;SDS_P1;SDS_P2;PMS_P1;PMS_P2;Temp;Humidity;BMP_temperature;BMP_pressure;BME280_temperature;BME280_humidity;BME280_pressure;Samples;Min_cycle;Max_cycle;Signal;HPM_P1;HPM_P2
2023/10/24 00:01:07;;;;;;;3.70;3.07;;;;;;;11.81;100.00;95848.22;5111882;28;20259;-55
2023/10/24 00:03:34;;;;;;;2.90;2.70;;;;;;;11.81;100.00;95853.53;5111538;28;20263;-55
2023/10/24 00:06:03;;;;;;;4.07;3.30;;;;;;;11.83;100.00;95832.97;5112532;28;20201;-54
2023/10/24 00:08:29;;;;;;;3.60;3.20;;;;;;;11.78;100.00;95822.09;5111592;28;20273;-54
2023/10/24 00:11:02;;;;;;;4.37;3.00;;;;;;;11.81;100.00;95816.44;5111604;28;20193;-53
2023/10/24 00:13:29;;;;;;;6.47;3.17;;;;;;;11.84;100.00;95841.75;5111045;28;20284;-54
2023/10/24 00:15:55;;;;;;;4.60;3.30;;;;;;;11.86;100.00;95842.44;5121064;28;20205;-56
2023/10/24 00:18:23;;;;;;;5.63;2.97;;;;;;;11.85;100.00;95844.25;5126083;28;20213;-56
2023/10/24 00:20:50;;;;;;;5.17;3.40;;;;;;;11.86;100.00;95840.63;5124205;28;20236;-55
2023/10/24 00:23:16;;;;;;;5.37;3.60;;;;;;;11.81;100.00;95842.94;5118553;28;20200;-54
2023/10/24 00:25:43;;;;;;;3.43;3.10;;;;;;;11.83;100.00;95834.81;5114313;28;20524;-55
2023/10/24 00:28:09;;;;;;;4.33;3.37;;;;;;;11.83;100.00;95840.91;5111081;28;20511;-56
2023/10/24 00:30:36;;;;;;;5.10;3.10;;;;;;;11.86;100.00;95835.31;5111212;28;20201;-55
2023/10/24 00:33:03;;;;;;;3.07;2.80;;;;;;;11.83;100.00;95814.44;5110673;28;20576;-55
2023/10/24 00:35:30;;;;;;;4.90;3.40;;;;;;;11.80;100.00;95809.47;5111648;28;20201;-54
2023/10/24 00:37:57;;;;;;;4.87;3.60;;;;;;;11.79;100.00;95818.44;5111076;28;20208;-54
2023/10/24 00:40:24;;;;;;;4.30;3.50;;;;;;;11.81;100.00;95821.75;5092492;28;20296;-54
2023/10/24 00:42:51;;;;;;;5.07;2.90;;;;;;;11.82;100.00;95823.41;5112071;28;20197;-55
2023/10/24 00:45:18;;;;;;;5.83;3.13;;;;;;;11.83;100.00;95818.94;5112685;28;20378;-54
2023/10/24 00:47:46;;;;;;;3.73;2.90;;;;;;;11.79;100.00;95802.56;5112014;28;20204;-55
2023/10/24 00:50:15;;;;;;;4.10;2.97;;;;;;;11.76;100.00;95797.56;5111592;28;20507;-55
2023/10/24 00:52:45;;;;;;;5.53;3.00;;;;;;;11.78;100.00;95794.75;5112939;28;20201;-54
2023/10/24 00:55:11;;;;;;;3.27;2.87;;;;;;;11.77;100.00;95793.94;5111803;28;20201;-55
2023/10/24 00:57:38;;;;;;;3.30;2.73;;;;;;;11.73;100.00;95774.09;5112025;28;20602;-55
2023/10/24 01:00:06;;;;;;;5.43;2.70;;;;;;;11.73;100.00;95773.25;5111907;28;20217;-55
2023/10/24 01:02:33;;;;;;;4.43;2.70;;;;;;;11.73;100.00;95792.63;5112749;28;20212;-55
2023/10/24 01:05:00;;;;;;;4.53;3.00;;;;;;;11.72;100.00;95796.28;5112919;28;20200;-54
2023/10/24 01:07:27;;;;;;;4.77;2.60;;;;;;;11.67;100.00;95798.56;5112103;28;20659;-55
2023/10/24 01:09:54;;;;;;;3.20;2.80;;;;;;;11.65;100.00;95795.28;5110915;28;20197;-55
2023/10/24 01:12:21;;;;;;;4.70;2.93;;;;;;;11.62;100.00;95800.91;5110398;28;20205;-55
2023/10/24 01:14:48;;;;;;;3.30;2.70;;;;;;;11.61;100.00;95799.25;5110811;28;20208;-53
2023/10/24 01:17:17;;;;;;;7.07;2.83;;;;;;;11.64;100.00;95792.78;5110403;28;20197;-55
2023/10/24 01:19:45;;;;;;;4.77;3.20;;;;;;;11.60;100.00;95781.72;5110522;28;20884;-55
2023/10/24 01:22:12;;;;;;;5.27;3.17;;;;;;;11.60;100.00;95768.47;5110276;28;20200;-54
2023/10/24 01:24:41;;;;;;;4.10;3.20;;;;;;;11.56;100.00;95766.31;5113511;28;20252;-55
2023/10/24 01:27:08;;;;;;;5.40;3.03;;;;;;;11.53;100.00;95774.63;5114269;28;20205;-56
2023/10/24 01:29:35;;;;;;;4.40;2.97;;;;;;;11.50;100.00;95765.19;5114279;28;20208;-55
2023/10/24 01:32:01;;;;;;;4.27;3.20;;;;;;;11.53;100.00;95742.84;5114112;28;20216;-56
2023/10/24 01:34:28;;;;;;;7.93;3.87;;;;;;;11.46;100.00;95748.84;5114025;28;20197;-55
2023/10/24 01:36:54;;;;;;;5.87;3.73;;;;;;;11.43;100.00;95733.28;5115051;28;20208;-54
2023/10/24 01:39:23;;;;;;;4.10;3.17;;;;;;;11.40;100.00;95730.16;5113955;28;20194;-54
2023/10/24 01:41:50;;;;;;;5.83;3.47;;;;;;;11.36;100.00;95736.78;5113749;28;20549;-54
2023/10/24 01:44:16;;;;;;;3.53;2.90;;;;;;;11.40;100.00;95738.09;5113651;28;20260;-55
2023/10/24 01:46:43;;;;;;;8.83;3.30;;;;;;;11.36;100.00;95734.97;5114559;28;20201;-54
2023/10/24 01:49:09;;;;;;;3.70;2.87;;;;;;;11.37;100.00;95719.91;5114053;28;20209;-55
2023/10/24 01:51:36;;;;;;;4.67;3.57;;;;;;;11.36;100.00;95726.19;5113821;28;20220;-54
2023/10/24 01:54:02;;;;;;;4.47;3.07;;;;;;;11.39;100.00;95739.09;5113953;28;20626;-55
2023/10/24 01:56:30;;;;;;;3.83;2.97;;;;;;;11.37;100.00;95741.09;5113980;28;20205;-55
2023/10/24 01:58:57;;;;;;;5.20;3.00;;;;;;;11.35;100.00;95751.00;5113895;28;20208;-55
2023/10/24 02:01:23;;;;;;;5.77;3.50;;;;;;;11.31;100.00;95753.16;5115069;28;20553;-55
2023/10/24 02:03:49;;;;;;;3.40;3.17;;;;;;;11.35;100.00;95751.00;5116450;28;20216;-54
2023/10/24 02:06:16;;;;;;;4.77;3.30;;;;;;;11.34;100.00;95744.88;5128146;28;20220;-56
2023/10/24 02:08:43;;;;;;;3.70;3.40;;;;;;;11.34;100.00;95738.75;5134974;28;20256;-56
2023/10/24 02:11:09;;;;;;;4.47;3.40;;;;;;;11.32;100.00;95746.06;5133123;28;20202;-55
2023/10/24 02:13:37;;;;;;;3.60;3.30;;;;;;;11.27;100.00;95746.56;5118060;28;20208;-58
2023/10/24 02:16:04;;;;;;;5.57;3.47;;;;;;;11.29;100.00;95736.63;5116905;28;20202;-60
2023/10/24 02:18:30;;;;;;;6.17;3.70;;;;;;;11.29;100.00;95741.09;5116701;28;20209;-55
2023/10/24 02:20:56;;;;;;;4.13;3.43;;;;;;;11.26;100.00;95744.09;5116931;28;20213;-55
2023/10/24 02:23:23;;;;;;;4.43;3.70;;;;;;;11.28;100.00;95745.56;5115862;28;20220;-55
2023/10/24 02:25:49;;;;;;;3.97;3.53;;;;;;;11.28;100.00;95736.78;5115362;28;20202;-56
2023/10/24 02:28:16;;;;;;;7.90;3.83;;;;;;;11.30;100.00;95732.97;5113440;28;20205;-53
2023/10/24 02:30:44;;;;;;;4.10;3.70;;;;;;;11.25;100.00;95726.56;5114035;28;20201;-54
2023/10/24 02:33:10;;;;;;;4.53;4.00;;;;;;;11.23;100.00;95728.56;5113635;28;20205;-55
2023/10/24 02:35:37;;;;;;;3.77;3.47;;;;;;;11.25;100.00;95727.38;5111534;28;20202;-55
2023/10/24 02:38:03;;;;;;;4.67;3.47;;;;;;;11.27;100.00;95727.19;5113576;28;20201;-54
2023/10/24 02:40:30;;;;;;;5.83;3.77;;;;;;;11.23;100.00;95726.72;5113676;28;20248;-55
2023/10/24 02:42:56;;;;;;;3.77;3.40;;;;;;;11.32;100.00;95736.28;5112084;28;20327;-53
2023/10/24 02:45:23;;;;;;;4.63;3.90;;;;;;;11.32;100.00;95722.22;5112979;28;20212;-55
2023/10/24 02:47:54;;;;;;;4.80;3.50;;;;;;;11.26;100.00;95726.41;5113445;28;20491;-55
2023/10/24 02:50:21;;;;;;;5.00;3.40;;;;;;;11.22;100.00;95719.78;5113726;28;20269;-55
2023/10/24 02:52:51;;;;;;;5.93;3.50;;;;;;;11.24;100.00;95711.66;5112815;28;20612;-54
2023/10/24 02:55:17;;;;;;;5.30;3.67;;;;;;;11.19;100.00;95701.59;5114241;28;20197;-53
2023/10/24 02:57:44;;;;;;;5.83;4.00;;;;;;;11.19;100.00;95695.47;5112891;28;20207;-54
2023/10/24 03:00:12;;;;;;;4.67;3.37;;;;;;;11.23;100.00;95689.66;5113145;28;20527;-53
2023/10/24 03:02:38;;;;;;;4.40;3.60;;;;;;;11.23;100.00;95679.06;5112105;28;20197;-54
2023/10/24 03:05:06;;;;;;;3.67;3.33;;;;;;;11.19;100.00;95680.44;5113337;28;20193;-54
2023/10/24 03:07:33;;;;;;;7.23;3.70;;;;;;;11.16;100.00;95683.41;5112823;28;20201;-54
2023/10/24 03:10:02;;;;;;;4.13;3.27;;;;;;;11.14;100.00;95689.88;5112729;28;20205;-55
2023/10/24 03:12:28;;;;;;;5.40;3.77;;;;;;;11.17;100.00;95684.22;5111800;28;20667;-54
2023/10/24 03:14:55;;;;;;;6.83;3.67;;;;;;;11.12;100.00;95690.06;5112695;28;20205;-54
2023/10/24 03:17:22;;;;;;;4.00;3.60;;;;;;;11.06;100.00;95684.59;5112747;28;20205;-54
2023/10/24 03:19:48;;;;;;;4.13;3.40;;;;;;;11.03;100.00;95672.53;5112025;28;20204;-55
2023/10/24 03:22:16;;;;;;;8.30;4.10;;;;;;;10.99;100.00;95682.63;5112572;28;20229;-56
2023/10/24 03:24:42;;;;;;;7.37;3.80;;;;;;;11.00;100.00;95691.38;5113182;28;20219;-56
2023/10/24 03:27:12;;;;;;;4.20;3.90;;;;;;;10.98;100.00;95685.47;5113933;28;20744;-56
2023/10/24 03:29:40;;;;;;;5.50;3.70;;;;;;;11.01;100.00;95689.56;5113535;28;20234;-54
2023/10/24 03:32:07;;;;;;;4.90;3.53;;;;;;;11.01;100.00;95694.88;5114662;28;20198;-55
2023/10/24 03:34:34;;;;;;;4.77;3.43;;;;;;;11.01;100.00;95695.69;5113804;28;20307;-55
2023/10/24 03:37:03;;;;;;;6.07;3.87;;;;;;;11.01;100.00;95695.69;5111721;28;20222;-55
2023/10/24 03:39:31;;;;;;;3.90;3.60;;;;;;;10.98;100.00;95691.53;5112129;28;20240;-55
2023/10/24 03:41:58;;;;;;;4.43;3.60;;;;;;;11.00;100.00;95694.03;5111661;28;20700;-54
2023/10/24 03:44:24;;;;;;;7.30;3.97;;;;;;;10.98;100.00;95691.53;5111097;28;20569;-55
2023/10/24 03:46:53;;;;;;;8.27;4.37;;;;;;;10.97;100.00;95676.69;5110781;28;20216;-54
2023/10/24 03:49:20;;;;;;;4.27;3.87;;;;;;;10.98;100.00;95666.94;5111697;28;20284;-55
2023/10/24 03:51:47;;;;;;;4.03;3.63;;;;;;;11.03;100.00;95669.88;5111079;28;20193;-55
2023/10/24 03:54:14;;;;;;;6.13;4.10;;;;;;;11.03;100.00;95669.06;5111703;28;20227;-55
2023/10/24 03:56:43;;;;;;;4.90;3.97;;;;;;;11.02;100.00;95680.66;5111142;28;20290;-55
2023/10/24 03:59:09;;;;;;;5.73;3.70;;;;;;;11.04;100.00;95694.53;5110825;28;20201;-55
2023/10/24 04:01:36;;;;;;;6.07;4.17;;;;;;;11.05;100.00;95712.06;5111327;28;20213;-55
2023/10/24 04:04:03;;;;;;;6.77;4.30;;;;;;;10.99;100.00;95702.97;5111096;28;20637;-54
2023/10/24 04:06:29;;;;;;;4.97;3.90;;;;;;;10.96;100.00;95701.47;5111522;28;20542;-55
2023/10/24 04:09:00;;;;;;;6.60;4.20;;;;;;;10.94;100.00;95690.25;5111202;28;20209;-53
2023/10/24 04:11:26;;;;;;;4.93;4.13;;;;;;;10.90;100.00;95686.28;5111487;28;20193;-53
2023/10/24 04:13:56;;;;;;;4.30;3.80;;;;;;;10.90;100.00;95683.66;5110298;28;20200;-54
2023/10/24 04:16:22;;;;;;;4.43;4.03;;;;;;;10.89;100.00;95687.28;5111354;28;20209;-54
2023/10/24 04:18:49;;;;;;;4.40;4.07;;;;;;;10.90;100.00;95698.69;5110801;28;20220;-54
2023/10/24 04:21:16;;;;;;;7.33;4.50;;;;;;;10.89;100.00;95697.03;5111398;28;20221;-54
2023/10/24 04:23:42;;;;;;;5.10;4.23;;;;;;;10.91;100.00;95697.69;5111525;28;20208;-59
2023/10/24 04:26:09;;;;;;;5.10;4.63;;;;;;;10.97;100.00;95710.25;5115272;28;20209;-55
2023/10/24 04:28:36;;;;;;;9.77;8.70;;;;;;;10.96;100.00;95705.94;5114413;28;20266;-56
2023/10/24 04:31:03;;;;;;;6.13;5.10;;;;;;;10.94;100.00;95702.66;5114257;28;20201;-55
2023/10/24 04:33:30;;;;;;;5.07;4.40;;;;;;;10.94;100.00;95697.38;5111047;28;20203;-53
2023/10/24 04:35:57;;;;;;;5.63;5.00;;;;;;;10.92;100.00;95694.88;5111461;28;20204;-55
2023/10/24 04:38:23;;;;;;;8.90;4.87;;;;;;;10.93;100.00;95691.25;5109905;28;20209;-54
2023/10/24 04:40:51;;;;;;;4.70;4.30;;;;;;;10.93;100.00;95687.78;5109586;28;20225;-54
2023/10/24 04:43:20;;;;;;;7.70;4.30;;;;;;;10.91;100.00;95693.22;5110159;28;20241;-54
2023/10/24 04:45:46;;;;;;;4.90;4.40;;;;;;;10.91;100.00;95685.28;5110755;28;20201;-54
2023/10/24 04:48:14;;;;;;;4.70;4.30;;;;;;;10.92;100.00;95676.34;5111037;28;20209;-54
2023/10/24 04:50:40;;;;;;;5.10;4.60;;;;;;;10.95;100.00;95669.91;5110308;28;20209;-55
2023/10/24 04:53:07;;;;;;;5.13;4.27;;;;;;;10.99;100.00;95658.81;5110918;28;20220;-54
2023/10/24 04:55:35;;;;;;;8.13;5.03;;;;;;;10.98;100.00;95651.88;5110200;28;20216;-56
2023/10/24 04:58:02;;;;;;;6.63;4.43;;;;;;;10.95;100.00;95662.78;5110492;28;20205;-55
2023/10/24 05:00:29;;;;;;;6.40;4.40;;;;;;;10.96;100.00;95651.22;5115157;28;20301;-54
2023/10/24 05:02:55;;;;;;;5.60;4.60;;;;;;;10.94;100.00;95641.81;5114258;28;20244;-56
2023/10/24 05:05:23;;;;;;;6.97;4.67;;;;;;;10.93;100.00;95635.69;5114573;28;20208;-55
2023/10/24 05:07:49;;;;;;;7.60;4.43;;;;;;;10.96;100.00;95630.06;5114398;28;20207;-54
2023/10/24 05:10:16;;;;;;;5.60;5.00;;;;;;;10.94;100.00;95629.44;5115320;28;20204;-54
2023/10/24 05:12:44;;;;;;;7.93;4.90;;;;;;;10.95;100.00;95627.56;5114739;28;20227;-69
2023/10/24 05:15:11;;;;;;;4.80;4.27;;;;;;;10.93;100.00;95629.56;5113821;28;20201;-55
2023/10/24 05:17:37;;;;;;;4.63;4.23;;;;;;;10.96;100.00;95627.41;5114355;28;20644;-53
2023/10/24 05:20:07;;;;;;;5.73;4.63;;;;;;;10.89;100.00;95617.69;5115170;28;20205;-55
2023/10/24 05:22:35;;;;;;;5.43;4.50;;;;;;;10.84;100.00;95615.53;5113468;28;20221;-56
2023/10/24 05:25:02;;;;;;;6.27;4.60;;;;;;;10.85;100.00;95619.84;5114129;28;20212;-57
2023/10/24 05:27:28;;;;;;;6.73;5.17;;;;;;;10.87;100.00;95619.69;5115208;28;20202;-56
2023/10/24 05:29:55;;;;;;;5.17;4.50;;;;;;;10.84;100.00;95628.75;5114319;28;20530;-56
2023/10/24 05:32:22;;;;;;;6.23;4.23;;;;;;;10.84;100.00;95615.53;5115287;28;20185;-55
2023/10/24 05:34:48;;;;;;;4.83;4.43;;;;;;;10.86;100.00;95625.97;5114459;28;20528;-56
2023/10/24 05:37:15;;;;;;;4.87;4.37;;;;;;;10.87;100.00;95625.81;5114104;28;20209;-56
2023/10/24 05:39:43;;;;;;;4.70;4.23;;;;;;;10.86;100.00;95623.31;5114259;28;20212;-56
2023/10/24 05:42:09;;;;;;;6.37;4.83;;;;;;;10.88;100.00;95627.44;5114451;28;20224;-56
2023/10/24 05:44:35;;;;;;;5.53;4.57;;;;;;;10.88;100.00;95634.53;5125476;28;20243;-57
2023/10/24 05:47:02;;;;;;;5.90;4.73;;;;;;;10.88;100.00;95638.00;5128139;28;20216;-55
2023/10/24 05:49:29;;;;;;;6.50;5.30;;;;;;;10.88;100.00;95630.06;5127248;28;20755;-55
2023/10/24 05:51:56;;;;;;;5.20;4.80;;;;;;;10.88;100.00;95630.06;5128714;28;20209;-56
2023/10/24 05:54:25;;;;;;;7.43;5.37;;;;;;;10.89;100.00;95637.03;5116091;28;20209;-56
2023/10/24 05:56:52;;;;;;;5.77;4.63;;;;;;;10.94;100.00;95636.53;5114958;28;20201;-56
2023/10/24 05:59:19;;;;;;;5.13;4.57;;;;;;;10.94;100.00;95637.34;5113869;28;20201;-56
2023/10/24 06:01:45;;;;;;;5.17;4.47;;;;;;;10.95;100.00;95644.28;5114553;28;20225;-54
2023/10/24 06:04:12;;;;;;;6.47;4.67;;;;;;;10.95;100.00;95646.91;5114305;28;20216;-56
2023/10/24 06:06:38;;;;;;;5.93;4.47;;;;;;;10.95;100.00;95644.28;5114131;28;20205;-56
2023/10/24 06:09:05;;;;;;;4.87;4.30;;;;;;;10.97;100.00;95642.31;5113530;28;20212;-58
2023/10/24 06:11:33;;;;;;;6.07;4.10;;;;;;;11.01;100.00;95639.31;5114501;28;20197;-55
2023/10/24 06:14:00;;;;;;;6.37;4.30;;;;;;;11.01;100.00;95636.66;5113431;28;20213;-56
2023/10/24 06:16:28;;;;;;;6.33;4.90;;;;;;;11.03;100.00;95640.78;5114522;28;20220;-55
2023/10/24 06:18:55;;;;;;;5.87;4.90;;;;;;;11.06;100.00;95642.25;5114196;28;20212;-56
2023/10/24 06:21:21;;;;;;;5.33;4.93;;;;;;;11.07;100.00;95639.44;5114182;28;20232;-56
2023/10/24 06:23:50;;;;;;;5.60;5.10;;;;;;;11.07;100.00;95642.09;5113577;28;20220;-55
2023/10/24 06:26:18;;;;;;;6.07;5.30;;;;;;;11.09;100.00;95644.59;5096052;28;20197;-54
2023/10/24 06:28:44;;;;;;;7.07;5.60;;;;;;;11.12;100.00;95629.19;5114415;28;21441;-56
2023/10/24 06:31:13;;;;;;;6.13;5.47;;;;;;;11.18;100.00;95625.03;5114325;28;20301;-57
2023/10/24 06:33:40;;;;;;;6.13;5.53;;;;;;;11.23;100.00;95630.66;5113776;28;20213;-56
2023/10/24 06:36:07;;;;;;;7.60;5.77;;;;;;;11.23;100.00;95649.16;5113683;28;20252;-56
2023/10/24 06:38:34;;;;;;;6.50;5.53;;;;;;;11.27;100.00;95653.09;5113755;28;20209;-57
2023/10/24 06:41:01;;;;;;;7.13;5.60;;;;;;;11.30;100.00;95644.84;5113930;28;20201;-57
2023/10/24 06:43:29;;;;;;;5.57;5.07;;;;;;;11.32;100.00;95622.50;5116946;28;20251;-57
2023/10/24 06:45:55;;;;;;;8.57;5.87;;;;;;;11.36;100.00;95626.44;5118048;28;20201;-57
2023/10/24 06:48:23;;;;;;;6.27;5.47;;;;;;;11.40;100.00;95621.63;5115553;28;20209;-57
2023/10/24 06:50:49;;;;;;;8.37;5.70;;;;;;;11.42;100.00;95630.22;5111906;28;20208;-55
2023/10/24 06:53:16;;;;;;;5.17;4.77;;;;;;;11.45;100.00;95629.88;5112790;28;20537;-56
2023/10/24 06:55:42;;;;;;;8.40;4.97;;;;;;;11.43;100.00;95637.16;5112621;28;20209;-56
2023/10/24 06:58:09;;;;;;;5.67;4.77;;;;;;;11.44;100.00;95649.41;5111900;28;20216;-55
2023/10/24 07:00:35;;;;;;;6.00;4.90;;;;;;;11.45;100.00;95657.16;5112170;28;20220;-56
2023/10/24 07:03:01;;;;;;;6.70;5.10;;;;;;;11.46;100.00;95658.81;5112891;28;20231;-56
2023/10/24 07:05:29;;;;;;;8.10;5.10;;;;;;;11.47;100.00;95660.47;5113023;28;20205;-57
2023/10/24 07:07:58;;;;;;;7.27;4.63;;;;;;;11.53;100.00;95664.25;5113168;28;20197;-56
2023/10/24 07:10:26;;;;;;;6.10;4.67;;;;;;;11.55;100.00;95656.94;5112590;28;20217;-55
2023/10/24 07:12:55;;;;;;;8.40;4.90;;;;;;;11.58;100.00;95661.91;5112508;28;20212;-56
2023/10/24 07:15:22;;;;;;;6.20;4.97;;;;;;;11.59;100.00;95660.91;5112246;28;20193;-57
2023/10/24 07:17:48;;;;;;;6.67;4.97;;;;;;;11.59;100.00;95663.53;5114470;28;20198;-56
2023/10/24 07:20:15;;;;;;;6.17;5.00;;;;;;;11.63;100.00;95661.38;5117502;28;20209;-56
2023/10/24 07:22:42;;;;;;;7.67;4.97;;;;;;;11.69;100.00;95666.00;5118349;28;20232;-55
2023/10/24 07:25:10;;;;;;;7.53;4.77;;;;;;;11.65;100.00;95664.69;5117990;28;20322;-57
2023/10/24 07:27:36;;;;;;;8.13;5.40;;;;;;;11.64;100.00;95661.22;5115358;28;20223;-57
2023/10/24 07:30:02;;;;;;;5.80;5.13;;;;;;;11.66;100.00;95667.16;5114317;28;20197;-55
2023/10/24 07:32:29;;;;;;;7.43;5.20;;;;;;;11.62;100.00;95668.50;5114864;28;20523;-57
2023/10/24 07:34:56;;;;;;;7.73;4.37;;;;;;;11.62;100.00;95679.09;5113077;28;20212;-56
2023/10/24 07:37:23;;;;;;;8.73;5.10;;;;;;;11.65;100.00;95678.75;5112140;28;20579;-56
2023/10/24 07:39:51;;;;;;;6.20;4.87;;;;;;;11.66;100.00;95669.81;5111920;28;20258;-56
2023/10/24 07:42:18;;;;;;;8.43;5.17;;;;;;;11.64;100.00;95671.81;5111662;28;20213;-56
2023/10/24 07:44:44;;;;;;;8.03;5.20;;;;;;;11.67;100.00;95655.56;5110825;28;20224;-56
2023/10/24 07:47:11;;;;;;;6.40;5.43;;;;;;;11.68;100.00;95661.69;5111808;28;20216;-57
2023/10/24 07:49:37;;;;;;;5.53;5.03;;;;;;;11.71;100.00;95664.03;5111340;28;20201;-57
2023/10/24 07:52:04;;;;;;;6.53;5.57;;;;;;;11.73;100.00;95660.19;5111969;28;20196;-57
2023/10/24 07:54:31;;;;;;;10.50;5.67;;;;;;;11.73;100.00;95665.50;5111501;28;20208;-55
2023/10/24 07:57:00;;;;;;;8.67;5.80;;;;;;;11.75;100.00;95673.28;5111859;28;20197;-56
2023/10/24 07:59:26;;;;;;;12.37;6.20;;;;;;;11.77;100.00;95676.56;5111787;28;20257;-57
2023/10/24 08:01:53;;;;;;;7.77;6.03;;;;;;;11.80;100.00;95682.34;5111950;28;20229;-57
2023/10/24 08:04:19;;;;;;;7.73;6.37;;;;;;;11.80;100.00;95677.03;5111460;28;20197;-57
2023/10/24 08:06:46;;;;;;;11.40;6.23;;;;;;;11.79;100.00;95683.38;5110464;28;20201;-57
2023/10/24 08:09:12;;;;;;;6.37;5.87;;;;;;;11.79;100.00;95672.78;5111251;28;20213;-57
2023/10/24 08:11:38;;;;;;;8.90;5.53;;;;;;;11.85;100.00;95680.00;5111750;28;20204;-57
2023/10/24 08:14:06;;;;;;;6.07;5.33;;;;;;;11.89;100.00;95675.19;5110954;28;20216;-57
2023/10/24 08:16:33;;;;;;;7.97;6.10;;;;;;;11.86;100.00;95675.53;5113203;28;20258;-57
2023/10/24 08:18:59;;;;;;;8.20;6.77;;;;;;;11.84;100.00;95673.06;5111557;28;20201;-57
2023/10/24 08:21:26;;;;;;;10.53;6.33;;;;;;;11.87;100.00;95672.69;5111137;28;20644;-57
2023/10/24 08:23:53;;;;;;;10.83;6.00;;;;;;;11.86;100.00;95676.38;5111184;28;20232;-56
2023/10/24 08:26:20;;;;;;;9.93;6.10;;;;;;;11.88;100.00;95677.00;5110956;28;20212;-56
2023/10/24 08:28:46;;;;;;;7.97;6.07;;;;;;;11.83;100.00;95679.34;5110912;28;20216;-57
2023/10/24 08:31:14;;;;;;;7.60;5.70;;;;;;;11.87;100.00;95687.75;5111238;28;20544;-56
2023/10/24 08:33:41;;;;;;;10.50;6.13;;;;;;;11.85;100.00;95693.25;5111303;28;20200;-57
2023/10/24 08:36:07;;;;;;;10.83;6.50;;;;;;;11.88;100.00;95687.59;5111494;28;20205;-57
2023/10/24 08:38:36;;;;;;;8.43;5.97;;;;;;;11.89;100.00;95691.91;5110859;28;20201;-57
2023/10/24 08:41:03;;;;;;;7.97;6.27;;;;;;;11.90;100.00;95696.19;5111152;28;20238;-56
2023/10/24 08:43:29;;;;;;;6.77;5.90;;;;;;;11.93;100.00;95697.69;5110718;28;20230;-55
2023/10/24 08:45:57;;;;;;;6.33;5.73;;;;;;;11.92;100.00;95696.84;5093057;28;20216;-55
2023/10/24 08:48:26;;;;;;;7.80;6.23;;;;;;;11.93;100.00;95698.50;5111059;28;20585;-56
2023/10/24 08:50:53;;;;;;;7.33;5.80;;;;;;;11.96;100.00;95697.34;5110973;28;20216;-56
2023/10/24 08:53:19;;;;;;;6.87;5.80;;;;;;;11.96;100.00;95699.97;5111360;28;20198;-55
2023/10/24 08:55:50;;;;;;;7.97;5.93;;;;;;;11.95;100.00;95701.81;5110280;28;20660;-56
2023/10/24 08:58:18;;;;;;;6.77;5.83;;;;;;;11.93;100.00;95693.22;5110679;28;20197;-56
2023/10/24 09:00:45;;;;;;;9.47;6.63;;;;;;;11.91;100.00;95705.78;5110274;28;20197;-56
2023/10/24 09:03:11;;;;;;;7.33;5.60;;;;;;;11.94;100.00;95708.09;5117545;28;20660;-56
2023/10/24 09:05:41;;;;;;;7.20;6.00;;;;;;;11.96;100.00;95713.22;5116538;28;20554;-56
2023/10/24 09:08:08;;;;;;;7.07;6.40;;;;;;;11.91;100.00;95721.69;5115137;28;20648;-56
2023/10/24 09:10:34;;;;;;;7.73;6.20;;;;;;;11.92;100.00;95712.75;5113996;28;20193;-56
2023/10/24 09:13:04;;;;;;;9.57;6.40;;;;;;;11.97;100.00;95715.69;5112823;28;20208;-57
2023/10/24 09:15:34;;;;;;;8.90;6.30;;;;;;;12.01;100.00;95707.41;5110747;28;20209;-56
2023/10/24 09:18:03;;;;;;;6.67;6.07;;;;;;;12.03;100.00;95705.41;5110710;28;20201;-56
2023/10/24 09:20:30;;;;;;;8.67;5.77;;;;;;;12.03;100.00;95708.06;5110664;28;20197;-56
2023/10/24 09:23:03;;;;;;;7.63;6.13;;;;;;;12.04;100.00;95707.06;5110687;28;20231;-56
2023/10/24 09:25:30;;;;;;;7.70;6.00;;;;;;;12.06;100.00;95700.56;5110741;28;20698;-56
2023/10/24 09:28:14;;;;;;;8.17;6.17;;;;;;;12.10;100.00;95701.88;5109942;28;20216;-56
2023/10/24 09:30:41;;;;;;;10.43;6.80;;;;;;;12.12;100.00;95696.38;5110483;28;20197;-57
2023/10/24 09:33:09;;;;;;;6.77;6.00;;;;;;;12.16;100.00;95705.66;5110820;28;20193;-56
2023/10/24 09:35:37;;;;;;;7.23;6.43;;;;;;;12.18;100.00;95701.84;5110728;28;20204;-56
2023/10/24 09:38:06;;;;;;;6.70;6.10;;;;;;;12.21;100.00;95698.00;5092829;28;20209;-56
2023/10/24 09:40:34;;;;;;;6.77;6.17;;;;;;;12.26;100.00;95699.13;5111071;28;20265;-55
2023/10/24 09:43:03;;;;;;;10.20;6.70;;;;;;;12.26;100.00;95699.13;5109682;28;20252;-57
2023/10/24 09:45:31;;;;;;;7.17;5.83;;;;;;;12.32;100.00;95693.13;5113105;28;20274;-55
2023/10/24 09:47:58;;;;;;;9.07;6.30;;;;;;;12.37;100.00;95695.22;5114419;28;20209;-56
2023/10/24 09:50:26;;;;;;;5.57;5.10;;;;;;;12.42;100.00;95695.53;5114307;28;20197;-55
2023/10/24 09:52:52;;;;;;;7.33;6.00;;;;;;;12.43;100.00;95695.34;5114513;28;20258;-56
2023/10/24 09:55:20;;;;;;;6.00;5.40;;;;;;;12.48;100.00;95690.34;5114772;28;20198;-56
2023/10/24 09:57:49;;;;;;;8.07;6.33;;;;;;;12.50;100.00;95690.19;5114001;28;20224;-57
2023/10/24 10:00:16;;;;;;;7.50;6.77;;;;;;;12.47;100.00;95690.50;5115907;28;20193;-56
2023/10/24 10:02:46;;;;;;;7.27;6.57;;;;;;;12.45;100.00;95689.88;5119797;28;20244;-58
2023/10/24 10:05:13;;;;;;;10.33;7.07;;;;;;;12.42;100.00;95683.09;5120300;28;20198;-55
2023/10/24 10:07:41;;;;;;;7.67;6.50;;;;;;;12.51;100.00;95681.19;5118300;28;20201;-57
2023/10/24 10:10:09;;;;;;;7.97;7.10;;;;;;;12.57;100.00;95679.69;5116920;28;20345;-56
2023/10/24 10:12:36;;;;;;;7.57;6.77;;;;;;;12.59;100.00;95673.19;5114328;28;20201;-57
2023/10/24 10:15:14;;;;;;;11.00;7.27;;;;;;;12.56;100.00;95672.72;5113287;28;20208;-57
2023/10/24 10:17:49;;;;;;;10.07;7.30;;;;;;;12.59;100.00;95662.56;5114050;28;20228;-56
2023/10/24 10:20:29;;;;;;;10.30;7.07;;;;;;;12.64;100.00;95654.91;5113517;28;20204;-55
2023/10/24 10:23:09;;;;;;;8.40;6.70;;;;;;;12.67;100.00;95666.97;5113607;28;20553;-55
2023/10/24 10:25:50;;;;;;;8.50;6.87;;;;;;;12.66;100.00;95678.59;5113816;28;20208;-55
2023/10/24 10:28:42;;;;;;;6.63;6.03;;;;;;;12.68;100.00;95684.56;5113704;28;20254;-56
2023/10/24 10:31:25;;;;;;;7.60;6.90;;;;;;;12.68;100.00;95672.09;5112813;28;20197;-54
2023/10/24 10:33:54;;;;;;;9.60;6.47;;;;;;;12.69;100.00;95667.63;5113652;28;20189;-57
2023/10/24 10:36:20;;;;;;;9.67;6.90;;;;;;;12.66;100.00;95665.31;5113071;28;20215;-56
2023/10/24 10:38:49;;;;;;;7.53;6.83;;;;;;;12.68;100.00;95658.84;5112806;28;20212;-56
2023/10/24 10:41:35;;;;;;;7.10;6.50;;;;;;;12.67;100.00;95665.16;5112936;28;20292;-55
2023/10/24 10:44:05;;;;;;;7.80;6.60;;;;;;;12.70;100.00;95664.78;5112212;28;20244;-55
2023/10/24 10:46:32;;;;;;;7.73;6.90;;;;;;;12.70;100.00;95663.97;5113729;28;20220;-56
2023/10/24 10:49:00;;;;;;;7.17;6.47;;;;;;;12.72;100.00;95661.94;5113376;28;20275;-56
2023/10/24 10:51:29;;;;;;;8.50;6.27;;;;;;;12.75;100.00;95659.75;5113607;28;20236;-56
2023/10/24 10:54:00;;;;;;;7.33;6.30;;;;;;;12.72;100.00;95651.34;5095041;28;20529;-55
2023/10/24 10:56:30;;;;;;;9.93;6.80;;;;;;;12.75;100.00;95641.19;5111052;28;20215;-55
2023/10/24 10:59:25;;;;;;;7.37;6.63;;;;;;;12.72;100.00;95625.63;5111596;28;20270;-55
2023/10/24 11:01:58;;;;;;;6.73;6.00;;;;;;;12.75;100.00;95614.66;5104819;28;20224;-57
2023/10/24 11:04:25;;;;;;;8.33;6.17;;;;;;;12.74;100.00;95602.44;5112220;28;20233;-56
2023/10/24 11:06:52;;;;;;;7.87;6.43;;;;;;;12.82;100.00;95604.19;5111935;28;20216;-55
2023/10/24 11:09:21;;;;;;;6.80;6.10;;;;;;;12.82;100.00;95602.31;5112827;28;20629;-55
2023/10/24 11:11:49;;;;;;;6.50;6.00;;;;;;;12.88;100.00;95608.75;5111761;28;20228;-56
2023/10/24 11:14:17;;;;;;;7.00;6.40;;;;;;;12.92;100.00;95600.25;5111556;28;20288;-56
2023/10/24 11:16:48;;;;;;;7.97;6.13;;;;;;;12.92;100.00;95618.00;5112177;28;20212;-55
2023/10/24 11:19:19;;;;;;;6.67;6.07;;;;;;;12.91;100.00;95614.50;5112110;28;20193;-56
2023/10/24 11:21:47;;;;;;;6.50;5.90;;;;;;;13.02;100.00;95612.41;5112101;28;20254;-55
2023/10/24 11:24:17;;;;;;;6.63;5.80;;;;;;;13.08;100.00;95614.31;5094329;28;20220;-56
2023/10/24 11:26:44;;;;;;;8.23;6.00;;;;;;;13.13;100.00;95618.13;5111999;28;20209;-56